Vidnoe, Russia
Current Conditions -  °F | °C
As of 4:30 PM on Saturday 25 Oct 2014 (Local Time) from UUMO Reporting Station
Clear Clear  
Wind Chill: 21°   Ceiling: Unl
Heat Index: 27°   Visibility: 6mi
Dew Point: 10°   Wind: 4mph
Humidity: 51%   Direction: NA
Pressure: 30.62"   Gusts: NA
Location:  55.55°N, 37.71°E
Report Text: UUMO 251330Z VRB02MPS CAVOK M03/M12 Q1037 NOSIG RMK QFE762/101626090060
Loading
Personal Weather Stations






























Interactive Weather Map
Tropical Storm Tracking
New forecast layout! Learn more

10-Day Weather Forecast

Advertisements
Track Severe Weather on mobile